Time;durP1;ratioP1;P1;durP2;ratioP2;P2;SDS_P1;SDS_P2;PMS_P1;PMS_P2;Temp;Humidity;BMP_temperature;BMP_pressure;BME280_temperature;BME280_humidity;BME280_pressure;Samples;Min_cycle;Max_cycle;Signal;HPM_P1;HPM_P2
2022/01/25 05:01:21;;;;;;;47.47;32.07;;;0.60;99.90;;;;;;5591907;23;20507;-68
2022/01/25 05:03:54;;;;;;;45.00;32.90;;;0.60;99.90;;;;;;5035341;28;20452;-69
2022/01/25 05:06:22;;;;;;;47.13;31.63;;;0.70;99.90;;;;;;5036320;28;20441;-69
2022/01/25 05:08:52;;;;;;;45.60;31.60;;;0.70;99.90;;;;;;5035652;28;20460;-69
2022/01/25 05:11:27;;;;;;;43.00;31.40;;;0.70;99.90;;;;;;5035762;28;20567;-70
2022/01/25 05:14:09;;;;;;;41.60;30.80;;;0.70;99.90;;;;;;5035461;28;20461;-70
2022/01/25 05:16:47;;;;;;;44.37;30.57;;;0.60;99.90;;;;;;5035472;28;20413;-70
2022/01/25 05:19:21;;;;;;;43.70;32.00;;;0.60;99.90;;;;;;5036274;28;20526;-69
2022/01/25 05:22:05;;;;;;;47.70;34.10;;;0.50;99.90;;;;;;5035461;28;20476;-70
2022/01/25 05:24:33;;;;;;;44.13;31.90;;;0.50;99.90;;;;;;5035290;28;20460;-69
2022/01/25 05:27:00;;;;;;;45.13;31.50;;;0.50;99.90;;;;;;5035434;28;20977;-69
2022/01/25 05:29:27;;;;;;;43.60;31.30;;;0.60;99.90;;;;;;5035273;28;20846;-70
2022/01/25 05:31:55;;;;;;;42.60;30.73;;;0.60;99.90;;;;;;5035275;28;20472;-70
2022/01/25 05:34:21;;;;;;;41.10;28.03;;;0.70;99.90;;;;;;5035066;28;20452;-70
2022/01/25 05:36:48;;;;;;;42.73;28.17;;;0.70;99.90;;;;;;5035366;28;20459;-70
2022/01/25 05:39:19;;;;;;;37.47;27.93;;;0.70;99.90;;;;;;5035219;28;20452;-69
2022/01/25 05:41:54;;;;;;;39.47;27.23;;;0.80;99.90;;;;;;5035601;28;20479;-69
2022/01/25 05:44:36;;;;;;;40.57;29.10;;;0.80;99.90;;;;;;5035380;28;20554;-68
2022/01/25 05:47:06;;;;;;;38.23;28.60;;;0.80;99.90;;;;;;5035649;28;20483;-70
2022/01/25 05:49:35;;;;;;;40.63;28.20;;;0.80;99.90;;;;;;5035584;28;20532;-69
2022/01/25 05:52:03;;;;;;;34.03;25.83;;;0.80;99.90;;;;;;5034789;28;20979;-70
2022/01/25 05:54:30;;;;;;;41.43;30.07;;;0.80;99.90;;;;;;5035023;28;20453;-69
2022/01/25 05:56:56;;;;;;;37.90;26.80;;;0.90;99.90;;;;;;5034919;28;20962;-69
2022/01/25 05:59:23;;;;;;;39.37;26.77;;;0.80;99.90;;;;;;5035532;28;20463;-68
2022/01/25 06:01:50;;;;;;;37.40;25.00;;;0.80;99.90;;;;;;5034663;28;20921;-68
2022/01/25 06:04:18;;;;;;;37.33;27.07;;;0.90;99.90;;;;;;5035124;28;20476;-70
2022/01/25 06:06:45;;;;;;;33.77;26.97;;;0.80;99.90;;;;;;5035365;28;20452;-70
2022/01/25 06:09:12;;;;;;;39.13;28.27;;;0.80;99.90;;;;;;5034984;28;20464;-67
2022/01/25 06:11:38;;;;;;;41.43;28.40;;;0.90;99.90;;;;;;5035112;28;20484;-68
2022/01/25 06:14:05;;;;;;;36.60;26.63;;;0.90;99.90;;;;;;5042439;28;20830;-68
2022/01/25 06:16:32;;;;;;;38.10;28.07;;;0.90;99.90;;;;;;5034898;28;20931;-68
2022/01/25 06:19:00;;;;;;;38.03;26.87;;;1.00;99.90;;;;;;5034797;28;20463;-67
2022/01/25 06:21:29;;;;;;;37.03;27.53;;;1.00;99.90;;;;;;5034419;28;20479;-67
2022/01/25 06:23:56;;;;;;;40.13;27.90;;;1.00;99.90;;;;;;5034807;28;20459;-67
2022/01/25 06:26:23;;;;;;;38.73;28.30;;;1.00;99.90;;;;;;5034597;28;20477;-68
2022/01/25 06:28:50;;;;;;;37.43;27.33;;;1.00;99.90;;;;;;5035507;28;20447;-67
2022/01/25 06:31:18;;;;;;;37.87;28.40;;;1.00;99.90;;;;;;5034560;28;20825;-67
2022/01/25 06:33:45;;;;;;;37.83;28.30;;;1.00;99.90;;;;;;5034612;28;20494;-68
2022/01/25 06:36:12;;;;;;;37.20;28.17;;;0.90;99.90;;;;;;5034063;28;20453;-68
2022/01/25 06:38:40;;;;;;;38.83;26.70;;;0.90;99.90;;;;;;5034000;28;20971;-68
2022/01/25 06:41:09;;;;;;;35.37;27.23;;;0.90;99.90;;;;;;5034491;28;20476;-69
2022/01/25 06:43:36;;;;;;;36.60;26.80;;;0.90;99.90;;;;;;5034492;28;20906;-69
2022/01/25 06:46:03;;;;;;;38.57;27.87;;;0.90;99.90;;;;;;5034406;28;20484;-69
2022/01/25 06:48:31;;;;;;;38.73;27.70;;;0.90;99.90;;;;;;5034515;28;20462;-68
2022/01/25 06:50:58;;;;;;;35.47;26.47;;;0.90;99.90;;;;;;5034434;28;20476;-68
2022/01/25 06:53:24;;;;;;;35.83;27.50;;;0.80;99.90;;;;;;5035046;28;20514;-68
2022/01/25 06:55:53;;;;;;;36.93;27.43;;;0.80;99.90;;;;;;5042416;28;20448;-68
2022/01/25 06:58:19;;;;;;;36.47;26.13;;;0.80;99.90;;;;;;5034556;28;20463;-68
2022/01/25 07:00:46;;;;;;;34.57;25.60;;;0.80;99.90;;;;;;5033918;28;20998;-68
2022/01/25 07:03:13;;;;;;;36.50;26.23;;;0.80;99.90;;;;;;5034140;28;20552;-68
2022/01/25 07:05:40;;;;;;;36.20;26.20;;;0.80;99.90;;;;;;5037981;28;20480;-69
2022/01/25 07:08:07;;;;;;;35.50;26.30;;;0.70;99.90;;;;;;5038362;28;20460;-69
2022/01/25 07:10:34;;;;;;;34.00;26.87;;;0.70;99.90;;;;;;5038584;28;20504;-69
2022/01/25 07:13:02;;;;;;;40.93;27.90;;;0.70;99.90;;;;;;5038511;28;20819;-68
2022/01/25 07:15:29;;;;;;;35.37;26.50;;;0.70;99.90;;;;;;5038377;28;20442;-68
2022/01/25 07:17:56;;;;;;;34.00;26.23;;;0.80;99.90;;;;;;5038573;28;20452;-67
2022/01/25 07:20:23;;;;;;;37.00;27.90;;;0.70;99.90;;;;;;5037960;28;20459;-68
2022/01/25 07:22:51;;;;;;;35.13;25.73;;;0.80;99.90;;;;;;5037859;28;20946;-68
2022/01/25 07:25:17;;;;;;;34.40;26.27;;;0.80;99.90;;;;;;5037921;28;20482;-68
2022/01/25 07:27:44;;;;;;;34.80;25.73;;;0.90;99.90;;;;;;5037867;28;20822;-68
2022/01/25 07:30:12;;;;;;;33.90;26.50;;;0.90;99.90;;;;;;5037891;28;20457;-68
2022/01/25 07:32:39;;;;;;;36.00;27.27;;;1.00;99.90;;;;;;5037783;28;20459;-68
2022/01/25 07:35:06;;;;;;;37.50;26.70;;;1.00;99.90;;;;;;5037248;28;20452;-68
2022/01/25 07:37:33;;;;;;;36.60;26.67;;;1.00;99.90;;;;;;5037347;28;20459;-68
2022/01/25 07:40:00;;;;;;;34.90;27.30;;;1.00;99.90;;;;;;5037561;28;20931;-68
2022/01/25 07:42:28;;;;;;;39.30;27.77;;;1.20;99.90;;;;;;5037186;28;20472;-68
2022/01/25 07:44:56;;;;;;;36.23;25.23;;;1.30;99.90;;;;;;5038250;28;20475;-68
2022/01/25 07:47:24;;;;;;;32.47;24.30;;;1.60;99.90;;;;;;5038431;28;20510;-67
2022/01/25 07:49:51;;;;;;;29.87;22.77;;;2.10;99.90;;;;;;5037091;28;20459;-68
2022/01/25 07:52:18;;;;;;;33.23;20.80;;;2.60;99.90;;;;;;5037010;28;20494;-69
2022/01/25 07:54:44;;;;;;;22.63;18.47;;;3.20;99.90;;;;;;5036982;28;20506;-68
2022/01/25 07:57:11;;;;;;;22.60;18.90;;;3.90;99.90;;;;;;5037507;28;20448;-68
2022/01/25 07:59:38;;;;;;;21.33;18.80;;;4.70;99.90;;;;;;5036793;28;20448;-68
2022/01/25 08:02:05;;;;;;;23.97;18.50;;;5.50;99.90;;;;;;5036583;28;20484;-68
2022/01/25 08:04:35;;;;;;;18.63;16.60;;;6.30;99.90;;;;;;5036952;28;20514;-67
2022/01/25 08:07:02;;;;;;;26.17;18.77;;;7.20;99.90;;;;;;5036936;28;20476;-67
2022/01/25 08:09:28;;;;;;;20.53;17.13;;;7.70;99.90;;;;;;5037099;28;20962;-68
2022/01/25 08:11:55;;;;;;;22.20;19.33;;;8.40;99.90;;;;;;5036882;28;20480;-68
2022/01/25 08:14:22;;;;;;;27.53;21.20;;;9.10;99.90;;;;;;5036982;28;20460;-70
2022/01/25 08:16:50;;;;;;;23.10;18.43;;;8.80;99.90;;;;;;5035768;28;20937;-70
2022/01/25 08:19:19;;;;;;;22.90;19.80;;;9.00;99.90;;;;;;5036512;28;20492;-70
2022/01/25 08:21:49;;;;;;;27.77;20.67;;;9.70;99.90;;;;;;5037015;28;20486;-68
2022/01/25 08:24:19;;;;;;;27.70;21.73;;;9.10;99.90;;;;;;5037681;28;20442;-68
2022/01/25 08:26:46;;;;;;;27.57;21.83;;;8.50;99.90;;;;;;5036587;28;20464;-68
2022/01/25 08:29:13;;;;;;;25.47;19.73;;;8.80;99.90;;;;;;5036309;28;20454;-69
2022/01/25 08:31:40;;;;;;;28.07;20.53;;;9.00;99.90;;;;;;5036545;28;20476;-70
2022/01/25 08:34:08;;;;;;;25.43;20.33;;;9.40;99.90;;;;;;5036622;28;20438;-69
2022/01/25 08:36:35;;;;;;;27.53;21.90;;;10.10;99.90;;;;;;5036167;28;20952;-70
2022/01/25 08:39:05;;;;;;;26.33;22.03;;;10.40;99.90;;;;;;5036138;28;20460;-69
2022/01/25 08:41:32;;;;;;;28.27;21.80;;;9.50;99.90;;;;;;5037898;28;20472;-70
2022/01/25 08:43:58;;;;;;;25.60;21.17;;;10.20;99.90;;;;;;5046591;28;20460;-70
2022/01/25 08:46:26;;;;;;;25.77;21.23;;;9.70;99.90;;;;;;5037146;28;20477;-70
2022/01/25 08:48:52;;;;;;;26.47;21.73;;;9.90;99.90;;;;;;5035919;28;20456;-69
2022/01/25 08:51:19;;;;;;;28.80;21.27;;;9.70;99.90;;;;;;5035915;28;20472;-67
2022/01/25 08:53:48;;;;;;;25.07;20.43;;;9.00;99.90;;;;;;5036261;28;20453;-68
2022/01/25 08:56:16;;;;;;;26.83;21.10;;;8.50;99.90;;;;;;5036466;28;20448;-68
2022/01/25 08:58:43;;;;;;;23.90;20.47;;;8.70;99.90;;;;;;5036091;28;20465;-67
2022/01/25 09:01:09;;;;;;;25.13;20.70;;;8.90;99.90;;;;;;5035862;28;20481;-67
2022/01/25 09:03:37;;;;;;;28.53;20.77;;;9.50;99.90;;;;;;5036300;28;20463;-68
2022/01/25 09:06:04;;;;;;;27.20;20.37;;;9.70;99.90;;;;;;5036301;28;20513;-67
2022/01/25 09:08:31;;;;;;;27.00;21.73;;;10.20;99.90;;;;;;5036189;28;20489;-67
2022/01/25 09:11:01;;;;;;;27.03;21.20;;;10.70;99.20;;;;;;5035936;28;20519;-68
2022/01/25 09:13:30;;;;;;;24.00;21.10;;;11.00;97.70;;;;;;5036100;28;20452;-67
2022/01/25 09:15:57;;;;;;;24.70;22.00;;;10.90;97.80;;;;;;5036284;28;20515;-67
2022/01/25 09:18:24;;;;;;;28.27;22.50;;;10.80;97.60;;;;;;5037585;28;20454;-68
2022/01/25 09:20:51;;;;;;;31.57;22.20;;;10.50;96.70;;;;;;5036668;28;20482;-68
2022/01/25 09:23:19;;;;;;;24.93;20.80;;;10.40;98.10;;;;;;5036248;28;20435;-68
2022/01/25 09:25:47;;;;;;;28.77;21.03;;;10.20;98.00;;;;;;5035799;28;20477;-69
2022/01/25 09:28:14;;;;;;;27.33;22.00;;;9.70;99.40;;;;;;5041871;28;20471;-68
2022/01/25 09:30:43;;;;;;;25.83;21.80;;;9.80;99.80;;;;;;5050500;28;20470;-67
2022/01/25 09:33:09;;;;;;;27.43;21.23;;;10.20;99.20;;;;;;5051872;28;20454;-68
2022/01/25 09:35:36;;;;;;;28.53;21.93;;;10.30;98.10;;;;;;5049071;28;20456;-68
2022/01/25 09:38:03;;;;;;;25.43;21.80;;;10.90;98.30;;;;;;5042831;28;20846;-70
2022/01/25 09:40:31;;;;;;;23.27;20.83;;;11.90;97.00;;;;;;5035999;28;20462;-69
2022/01/25 09:42:58;;;;;;;25.47;22.63;;;12.30;94.80;;;;;;5035741;28;20514;-71
2022/01/25 09:45:26;;;;;;;28.07;23.17;;;12.20;95.10;;;;;;5034981;28;20467;-70
2022/01/25 09:47:54;;;;;;;27.20;24.40;;;13.20;93.50;;;;;;5035065;28;20456;-69
2022/01/25 09:50:22;;;;;;;25.70;22.63;;;12.90;92.20;;;;;;5035351;28;20466;-69
2022/01/25 09:52:50;;;;;;;24.90;22.20;;;13.00;91.60;;;;;;5034729;28;20820;-68
2022/01/25 09:55:19;;;;;;;25.77;22.07;;;12.00;92.40;;;;;;5035013;28;20466;-68
2022/01/25 09:57:46;;;;;;;26.47;22.30;;;12.10;92.70;;;;;;5034973;28;20469;-69
2022/01/25 10:00:19;;;;;;;28.60;25.40;;;12.90;91.70;;;;;;5034638;28;20457;-69
2022/01/25 10:02:54;;;;;;;25.87;22.80;;;13.40;90.90;;;;;;5034843;28;20799;-70
2022/01/25 10:05:27;;;;;;;24.93;22.53;;;13.30;90.60;;;;;;5034644;28;20476;-69
2022/01/25 10:07:59;;;;;;;23.83;21.43;;;13.10;89.00;;;;;;5034606;28;20482;-70
2022/01/25 10:10:27;;;;;;;26.07;23.23;;;13.50;90.40;;;;;;5034393;28;20454;-69
2022/01/25 10:12:56;;;;;;;26.73;22.40;;;14.00;89.80;;;;;;5034588;28;20462;-69
2022/01/25 10:15:26;;;;;;;25.80;23.00;;;14.80;87.60;;;;;;5034490;28;20505;-74
2022/01/25 10:17:53;;;;;;;34.57;24.13;;;12.90;87.70;;;;;;5034511;28;20473;-68
2022/01/25 10:20:29;;;;;;;25.03;22.37;;;12.90;90.20;;;;;;5034172;28;20457;-68
2022/01/25 10:22:59;;;;;;;25.90;23.40;;;13.00;89.70;;;;;;5034124;28;20914;-67
2022/01/25 10:25:35;;;;;;;26.10;23.30;;;13.10;90.50;;;;;;5034571;28;20893;-68
2022/01/25 10:28:04;;;;;;;27.20;24.30;;;12.90;90.10;;;;;;5034640;28;20442;-68
2022/01/25 10:30:33;;;;;;;29.53;24.27;;;12.80;90.10;;;;;;5043907;28;20815;-67
2022/01/25 10:33:03;;;;;;;28.80;24.10;;;13.50;90.20;;;;;;5036754;28;20449;-67
2022/01/25 10:35:31;;;;;;;24.83;22.33;;;14.10;88.80;;;;;;5034247;28;20494;-68
2022/01/25 10:37:58;;;;;;;26.77;23.57;;;14.00;87.20;;;;;;5033741;28;20962;-69
2022/01/25 10:40:38;;;;;;;26.17;23.57;;;14.10;87.90;;;;;;5033741;28;20822;-68
2022/01/25 10:43:07;;;;;;;26.60;23.90;;;14.10;86.50;;;;;;5034858;28;20799;-68
2022/01/25 10:45:33;;;;;;;32.83;25.20;;;13.30;88.40;;;;;;5034528;28;20487;-69
2022/01/25 10:48:00;;;;;;;29.80;24.83;;;12.90;90.00;;;;;;5033888;28;20455;-69
2022/01/25 10:50:31;;;;;;;26.97;22.83;;;13.30;90.30;;;;;;5034160;28;20454;-67
2022/01/25 10:53:08;;;;;;;26.43;23.70;;;13.10;90.10;;;;;;5034270;28;20440;-68
2022/01/25 10:55:39;;;;;;;27.23;23.90;;;12.90;90.20;;;;;;5033994;28;20496;-68
2022/01/25 10:58:07;;;;;;;27.50;24.60;;;13.20;90.50;;;;;;5033875;28;20456;-68
2022/01/25 11:00:37;;;;;;;27.73;24.77;;;12.70;90.00;;;;;;5033718;28;20538;-68
2022/01/25 11:03:04;;;;;;;30.67;25.60;;;12.30;91.20;;;;;;5033633;28;20449;-68
2022/01/25 11:05:33;;;;;;;28.30;23.73;;;11.90;91.40;;;;;;5033565;28;20451;-69
2022/01/25 11:08:13;;;;;;;28.33;23.40;;;11.50;92.40;;;;;;5033848;28;20466;-68
2022/01/25 11:10:47;;;;;;;26.70;23.77;;;11.10;93.30;;;;;;5033652;28;20486;-68
2022/01/25 11:13:33;;;;;;;28.70;24.53;;;10.60;94.60;;;;;;5033875;28;20497;-67
2022/01/25 11:16:02;;;;;;;29.23;24.33;;;10.10;95.80;;;;;;5033789;28;20444;-68
2022/01/25 11:18:30;;;;;;;32.03;24.03;;;9.90;97.00;;;;;;5033608;28;20446;-66
2022/01/25 11:20:58;;;;;;;27.97;24.80;;;9.40;98.40;;;;;;5033980;28;20473;-67
2022/01/25 11:23:26;;;;;;;33.60;26.73;;;9.10;99.90;;;;;;5034243;28;20456;-67
2022/01/25 11:25:55;;;;;;;24.80;19.67;;;8.20;99.90;;;;;;5033391;28;20462;-67
2022/01/25 11:28:22;;;;;;;30.43;26.40;;;8.10;99.90;;;;;;5033579;28;20488;-67
2022/01/25 11:30:52;;;;;;;34.03;26.00;;;8.20;99.90;;;;;;5034130;28;20477;-66
2022/01/25 11:33:21;;;;;;;34.97;28.10;;;7.90;99.90;;;;;;5033823;28;20460;-66
2022/01/25 11:35:49;;;;;;;34.47;27.40;;;7.80;99.90;;;;;;5033329;28;20487;-67
2022/01/25 11:38:26;;;;;;;33.63;27.77;;;7.60;99.90;;;;;;5033860;28;20478;-67
2022/01/25 11:40:56;;;;;;;35.67;27.77;;;7.70;99.90;;;;;;5033776;28;20483;-67
2022/01/25 11:43:23;;;;;;;34.50;27.57;;;7.50;99.90;;;;;;5033578;28;20458;-67
2022/01/25 11:45:50;;;;;;;34.23;27.60;;;7.20;99.90;;;;;;5033839;28;20506;-68
2022/01/25 11:48:22;;;;;;;36.83;29.50;;;7.10;99.90;;;;;;5033424;28;20480;-67
2022/01/25 11:50:49;;;;;;;38.70;29.20;;;6.80;99.90;;;;;;5034030;28;20482;-67
2022/01/25 11:53:18;;;;;;;40.13;29.93;;;6.90;99.90;;;;;;5039309;28;20552;-67
2022/01/25 11:55:48;;;;;;;38.67;29.00;;;6.80;99.90;;;;;;5037053;28;20936;-67
2022/01/25 11:58:27;;;;;;;39.57;29.03;;;6.80;99.90;;;;;;5037374;28;20484;-68
2022/01/25 12:00:56;;;;;;;37.70;27.90;;;6.80;99.90;;;;;;5036746;28;20494;-68
2022/01/25 12:03:26;;;;;;;31.63;26.43;;;6.70;99.90;;;;;;5036922;28;20447;-68
2022/01/25 12:06:00;;;;;;;36.20;27.60;;;6.80;99.90;;;;;;5036930;28;20507;-68
2022/01/25 12:08:39;;;;;;;40.47;28.30;;;6.90;99.90;;;;;;5037409;28;20430;-65
2022/01/25 12:11:29;;;;;;;39.83;28.17;;;6.80;99.90;;;;;;5036718;28;20481;-65
2022/01/25 12:14:21;;;;;;;33.40;26.40;;;6.80;99.90;;;;;;5037391;28;20436;-65
2022/01/25 12:16:49;;;;;;;32.40;25.97;;;6.80;99.90;;;;;;5036944;28;20448;-65
2022/01/25 12:19:17;;;;;;;36.27;27.00;;;6.60;99.90;;;;;;5036690;28;20448;-66
2022/01/25 12:22:15;;;;;;;35.20;26.90;;;6.40;99.90;;;;;;5036624;28;20472;-66
2022/01/25 12:25:02;;;;;;;37.97;29.30;;;6.40;99.90;;;;;;5040635;28;20487;-65
2022/01/25 12:27:48;;;;;;;36.17;27.23;;;6.50;99.90;;;;;;5035893;28;21050;-65
2022/01/25 12:30:19;;;;;;;35.37;27.57;;;6.30;99.90;;;;;;5036153;28;20444;-67
2022/01/25 12:32:55;;;;;;;31.83;25.40;;;6.30;99.90;;;;;;5036366;28;20441;-66
2022/01/25 12:35:34;;;;;;;36.77;28.90;;;6.10;99.90;;;;;;5037021;28;20440;-66
2022/01/25 12:38:04;;;;;;;36.30;27.13;;;5.90;99.90;;;;;;5036366;28;20540;-65
2022/01/25 12:40:41;;;;;;;36.10;27.13;;;6.00;99.90;;;;;;5037063;28;20440;-65
2022/01/25 12:43:10;;;;;;;35.40;29.97;;;6.10;99.90;;;;;;5036062;28;20480;-66
2022/01/25 12:45:43;;;;;;;37.73;27.77;;;6.00;99.90;;;;;;5036083;28;20546;-66
2022/01/25 12:48:13;;;;;;;38.47;26.90;;;5.90;99.90;;;;;;5035924;28;20457;-66
2022/01/25 12:50:42;;;;;;;36.27;30.00;;;6.00;99.90;;;;;;5038347;28;20870;-65
2022/01/25 12:53:11;;;;;;;37.27;27.80;;;6.10;99.90;;;;;;5041817;28;20463;-64
2022/01/25 12:55:44;;;;;;;38.17;29.00;;;6.20;99.90;;;;;;5041819;28;20925;-66
2022/01/25 12:58:11;;;;;;;39.50;30.07;;;5.90;99.90;;;;;;5040697;28;20441;-65
2022/01/25 13:00:42;;;;;;;42.90;30.20;;;6.10;99.90;;;;;;5035619;28;20485;-65
2022/01/25 13:03:20;;;;;;;40.70;31.17;;;6.00;99.90;;;;;;5035987;28;20437;-65
2022/01/25 13:05:49;;;;;;;44.50;32.43;;;5.90;99.90;;;;;;5035630;28;20447;-65
2022/01/25 13:08:27;;;;;;;43.47;32.93;;;5.80;99.90;;;;;;5035336;28;20488;-65
2022/01/25 13:11:13;;;;;;;44.13;31.60;;;5.80;99.90;;;;;;5036164;28;20471;-65
2022/01/25 13:13:56;;;;;;;47.90;32.87;;;5.80;99.90;;;;;;5035669;28;20437;-65
2022/01/25 13:16:40;;;;;;;40.20;32.57;;;5.70;99.90;;;;;;5035689;28;20444;-65
2022/01/25 13:19:08;;;;;;;49.37;35.27;;;5.70;99.90;;;;;;5035539;28;20843;-67
2022/01/25 13:21:41;;;;;;;41.13;30.37;;;5.70;99.90;;;;;;5035241;28;20479;-65
2022/01/25 13:24:10;;;;;;;42.77;31.87;;;5.60;99.90;;;;;;5035170;28;20441;-65
2022/01/25 13:26:42;;;;;;;50.03;31.90;;;5.60;99.90;;;;;;5035138;28;20466;-65
2022/01/25 13:32:09;;;;;;;50.03;36.53;;;5.40;99.90;;;;;;5034528;28;20472;-65
2022/01/25 13:34:36;;;;;;;48.83;33.90;;;5.20;99.90;;;;;;5034964;28;20799;-67
2022/01/25 13:37:03;;;;;;;49.80;35.97;;;5.10;99.90;;;;;;5035535;28;20445;-66
2022/01/25 13:39:30;;;;;;;53.80;38.43;;;5.00;99.90;;;;;;5035061;28;20448;-66
2022/01/25 13:42:03;;;;;;;52.37;38.30;;;4.90;99.90;;;;;;5034866;28;20483;-65
2022/01/25 13:47:15;;;;;;;54.67;37.33;;;4.80;99.90;;;;;;5034855;28;20933;-65
2022/01/25 13:49:42;;;;;;;56.60;38.63;;;4.70;99.90;;;;;;5034423;28;20927;-67
2022/01/25 13:52:10;;;;;;;57.80;40.43;;;4.60;99.90;;;;;;5034860;28;20472;-66
2022/01/25 13:54:37;;;;;;;54.60;39.70;;;4.40;99.90;;;;;;5035931;28;20436;-67
2022/01/25 13:57:12;;;;;;;62.07;38.50;;;4.40;99.90;;;;;;5035746;28;20444;-67
2022/01/25 13:59:39;;;;;;;66.60;41.10;;;4.40;99.90;;;;;;5034236;28;20463;-66
2022/01/25 14:02:06;;;;;;;57.97;41.20;;;4.40;99.90;;;;;;5034083;28;20485;-66
2022/01/25 14:04:38;;;;;;;61.87;42.07;;;4.40;99.90;;;;;;5034802;28;20459;-66
2022/01/25 14:07:04;;;;;;;61.23;41.97;;;4.40;99.90;;;;;;5034581;28;20515;-67
2022/01/25 14:09:36;;;;;;;56.97;41.77;;;4.30;99.90;;;;;;5034148;28;20912;-67
2022/01/25 14:23:23;;;;;;;60.30;39.73;;;3.90;99.90;;;;;;5034415;28;20489;-67
2022/01/25 14:25:58;;;;;;;63.70;42.40;;;3.90;99.90;;;;;;5034211;28;20966;-66
2022/01/25 14:28:25;;;;;;;65.97;42.47;;;4.00;99.90;;;;;;5036696;28;20464;-67
2022/01/25 14:30:54;;;;;;;66.50;42.73;;;3.90;99.90;;;;;;5036318;28;20476;-67
2022/01/25 14:33:23;;;;;;;69.57;43.50;;;3.80;99.90;;;;;;5035965;28;20916;-66
2022/01/25 14:35:53;;;;;;;69.97;43.60;;;3.80;99.90;;;;;;5034718;28;20449;-67
2022/01/25 14:38:22;;;;;;;66.90;43.87;;;3.60;99.90;;;;;;5034025;28;20443;-66
2022/01/25 14:40:59;;;;;;;65.33;42.80;;;3.50;99.90;;;;;;5034196;28;20983;-67
2022/01/25 14:43:28;;;;;;;69.87;45.60;;;3.50;99.90;;;;;;5034263;28;20913;-66
2022/01/25 14:46:05;;;;;;;70.17;44.50;;;3.50;99.90;;;;;;5033992;28;20452;-66
2022/01/25 14:48:36;;;;;;;68.67;44.17;;;3.60;99.90;;;;;;5034075;28;20460;-67
2022/01/25 14:51:07;;;;;;;69.37;43.67;;;3.60;99.90;;;;;;5033584;28;20476;-66
2022/01/25 14:53:34;;;;;;;68.20;45.20;;;3.50;99.90;;;;;;5033970;28;20441;-66
2022/01/25 14:56:02;;;;;;;68.07;43.93;;;3.30;99.90;;;;;;5033573;28;20460;-67
2022/01/25 15:01:15;;;;;;;70.83;43.50;;;3.40;99.90;;;;;;5033647;28;20471;-67
2022/01/25 15:03:44;;;;;;;65.47;42.30;;;3.50;99.90;;;;;;5034099;28;20468;-67
2022/01/25 15:06:13;;;;;;;72.47;45.10;;;3.50;99.90;;;;;;5033976;28;20990;-67
2022/01/25 15:08:47;;;;;;;67.13;42.53;;;3.40;99.90;;;;;;5033630;28;20530;-67
2022/01/25 15:11:14;;;;;;;71.63;44.40;;;3.40;99.90;;;;;;5033837;28;20483;-66
2022/01/25 15:13:41;;;;;;;76.67;45.97;;;3.40;99.90;;;;;;5033340;28;20932;-67
2022/01/25 15:16:07;;;;;;;69.03;42.53;;;3.30;99.90;;;;;;5033702;28;20857;-67
2022/01/25 15:18:38;;;;;;;77.53;46.50;;;3.30;99.90;;;;;;5033279;28;20962;-67
2022/01/25 15:21:07;;;;;;;70.23;44.40;;;3.40;99.90;;;;;;5033264;28;20478;-66
2022/01/25 15:23:35;;;;;;;75.30;44.50;;;3.50;99.90;;;;;;5034444;28;20461;-67
2022/01/25 15:26:05;;;;;;;73.07;42.37;;;3.50;99.90;;;;;;5035028;28;20448;-66
2022/01/25 15:28:38;;;;;;;75.27;44.50;;;3.50;99.90;;;;;;5038145;28;20470;-66
2022/01/25 15:31:07;;;;;;;71.60;46.60;;;3.50;99.90;;;;;;5037602;28;20480;-66
2022/01/25 15:33:34;;;;;;;82.47;47.67;;;3.50;99.90;;;;;;5037272;28;20952;-66
2022/01/25 15:36:01;;;;;;;69.53;45.00;;;3.50;99.90;;;;;;5037493;28;20456;-66
2022/01/25 15:38:28;;;;;;;78.23;46.70;;;3.50;99.90;;;;;;5037452;28;20451;-67
2022/01/25 15:40:56;;;;;;;76.67;46.20;;;3.50;99.90;;;;;;5037226;28;20817;-68
2022/01/25 15:43:24;;;;;;;69.93;43.03;;;3.50;99.90;;;;;;5037454;28;20456;-67
2022/01/25 15:46:03;;;;;;;69.67;43.23;;;3.60;99.90;;;;;;5037433;28;20852;-67
2022/01/25 15:48:31;;;;;;;77.33;45.33;;;3.60;99.90;;;;;;5037134;28;20535;-67
2022/01/25 15:50:59;;;;;;;70.93;44.10;;;3.70;99.90;;;;;;5036921;28;20526;-67
2022/01/25 15:53:26;;;;;;;65.70;43.00;;;3.80;99.90;;;;;;5037595;28;20475;-66
2022/01/25 15:55:53;;;;;;;77.63;44.67;;;3.80;99.90;;;;;;5036939;28;20970;-66
2022/01/25 15:58:21;;;;;;;69.30;41.57;;;3.80;99.90;;;;;;5037081;28;20449;-66
2022/01/25 16:00:48;;;;;;;70.70;43.40;;;3.80;99.90;;;;;;5036667;28;20488;-67
2022/01/25 16:03:16;;;;;;;73.93;44.37;;;3.80;99.90;;;;;;5036937;28;20459;-67
2022/01/25 16:05:42;;;;;;;67.53;42.67;;;3.70;99.90;;;;;;5037024;28;20491;-67
2022/01/25 16:08:09;;;;;;;76.70;46.13;;;3.60;99.90;;;;;;5036841;28;20534;-67
2022/01/25 16:10:37;;;;;;;71.30;40.73;;;3.60;99.90;;;;;;5036850;28;20459;-66
2022/01/25 16:13:05;;;;;;;79.50;45.73;;;3.50;99.90;;;;;;5036835;28;20452;-67
2022/01/25 16:15:33;;;;;;;72.57;42.50;;;3.40;99.90;;;;;;5036745;28;20463;-66
2022/01/25 16:18:00;;;;;;;71.40;43.80;;;3.40;99.90;;;;;;5036303;28;20962;-67
2022/01/25 16:20:27;;;;;;;73.40;46.80;;;3.40;99.90;;;;;;5036715;28;20448;-66
2022/01/25 16:22:54;;;;;;;67.87;42.13;;;3.30;99.90;;;;;;5036732;28;20455;-66
2022/01/25 16:25:21;;;;;;;68.30;42.47;;;3.40;99.90;;;;;;5036751;28;20448;-65
2022/01/25 16:27:48;;;;;;;68.53;42.97;;;3.40;99.90;;;;;;5036613;28;20843;-65
2022/01/25 16:30:15;;;;;;;65.03;42.90;;;3.50;99.90;;;;;;5036814;28;20456;-66
2022/01/25 16:32:45;;;;;;;71.57;44.20;;;3.50;99.90;;;;;;5036698;28;20460;-66
2022/01/25 16:35:14;;;;;;;74.37;45.57;;;3.40;99.90;;;;;;5036923;28;20516;-66
2022/01/25 16:37:42;;;;;;;77.00;44.33;;;3.30;99.90;;;;;;5036410;28;20463;-66
2022/01/25 16:40:09;;;;;;;70.90;44.03;;;3.30;99.90;;;;;;5037221;28;20452;-65
2022/01/25 16:42:37;;;;;;;66.07;41.33;;;3.30;99.90;;;;;;5036752;28;20476;-65
2022/01/25 16:45:05;;;;;;;74.00;43.50;;;3.30;99.90;;;;;;5037458;28;20444;-66
2022/01/25 16:47:33;;;;;;;67.43;42.03;;;3.30;99.90;;;;;;5038752;28;20456;-65
2022/01/25 16:50:03;;;;;;;73.37;43.23;;;3.30;99.90;;;;;;5038353;28;20806;-66
2022/01/25 16:52:30;;;;;;;69.33;42.63;;;3.30;99.90;;;;;;5041360;28;20483;-65
2022/01/25 16:54:57;;;;;;;77.38;44.25;;;3.30;99.90;;;;;;5042142;28;20529;-66
2022/01/25 16:57:23;;;;;;;74.60;43.20;;;3.20;99.90;;;;;;5041019;28;20198;-66
2022/01/25 16:59:50;;;;;;;79.57;45.23;;;3.20;99.90;;;;;;5039481;28;20457;-66
2022/01/25 17:02:18;;;;;;;73.30;44.57;;;3.20;99.90;;;;;;5036479;28;20476;-65
2022/01/25 17:04:45;;;;;;;72.47;42.13;;;3.20;99.90;;;;;;5035703;28;20452;-65
2022/01/25 17:07:13;;;;;;;74.27;45.93;;;3.20;99.90;;;;;;5035730;28;20456;-65
2022/01/25 17:09:40;;;;;;;66.27;41.83;;;3.20;99.90;;;;;;5035489;28;20480;-65
2022/01/25 17:12:08;;;;;;;72.10;43.70;;;3.30;99.90;;;;;;5035423;28;20472;-66
2022/01/25 17:14:35;;;;;;;73.60;43.60;;;3.30;99.90;;;;;;5035610;28;20507;-65
2022/01/25 17:17:02;;;;;;;67.37;41.70;;;3.30;99.90;;;;;;5035459;28;20456;-66
2022/01/25 17:19:29;;;;;;;71.27;41.97;;;3.20;99.90;;;;;;5035669;28;20453;-66
2022/01/25 17:21:56;;;;;;;73.67;44.20;;;3.30;99.90;;;;;;5035135;28;20476;-65
2022/01/25 17:24:25;;;;;;;76.60;46.00;;;3.30;99.90;;;;;;5035518;28;20456;-65
2022/01/25 17:26:52;;;;;;;71.37;43.27;;;3.30;99.90;;;;;;5035626;28;20502;-66
2022/01/25 17:29:20;;;;;;;71.43;43.63;;;3.30;99.90;;;;;;5035455;28;20472;-65
2022/01/25 17:31:47;;;;;;;70.50;44.60;;;3.30;99.90;;;;;;5035483;28;20472;-65
2022/01/25 17:34:14;;;;;;;78.30;44.60;;;3.20;99.90;;;;;;5035532;28;20449;-65
2022/01/25 17:36:42;;;;;;;76.20;45.23;;;3.30;99.90;;;;;;5035472;28;20457;-66
2022/01/25 17:39:11;;;;;;;75.03;45.27;;;3.20;99.90;;;;;;5036029;28;20495;-66
2022/01/25 17:41:42;;;;;;;81.00;46.83;;;3.20;99.90;;;;;;5035248;28;20476;-66
2022/01/25 17:44:10;;;;;;;76.37;46.00;;;3.20;99.90;;;;;;5035319;28;20935;-66
2022/01/25 17:46:37;;;;;;;76.90;48.40;;;3.30;99.90;;;;;;5035932;28;20453;-66
2022/01/25 17:49:06;;;;;;;78.43;46.50;;;3.20;99.90;;;;;;5034245;28;21019;-66
2022/01/25 17:51:34;;;;;;;70.30;43.87;;;3.30;99.90;;;;;;5035505;28;20512;-66
2022/01/25 17:54:01;;;;;;;70.90;43.40;;;3.30;99.90;;;;;;5035413;28;20437;-66
2022/01/25 17:56:28;;;;;;;70.40;43.13;;;3.20;99.90;;;;;;5035368;28;20457;-66
2022/01/25 17:58:57;;;;;;;79.33;48.37;;;3.10;99.90;;;;;;5035593;28;20843;-65
2022/01/25 18:01:25;;;;;;;73.23;44.10;;;2.90;99.90;;;;;;5035593;28;20477;-65
2022/01/25 18:03:52;;;;;;;78.00;45.63;;;3.00;99.90;;;;;;5034969;28;20457;-65
2022/01/25 18:06:19;;;;;;;72.73;45.70;;;2.90;99.90;;;;;;5035006;28;20816;-65